Time;durP1;ratioP1;P1;durP2;ratioP2;P2;SDS_P1;SDS_P2;PMS_P1;PMS_P2;Temp;Humidity;BMP_temperature;BMP_pressure;BME280_temperature;BME280_humidity;BME280_pressure;Samples;Min_cycle;Max_cycle;Signal;HPM_P1;HPM_P2
2022/03/12 00:00:56;;;;;;;10.25;8.25;;;5.30;54.70;;;;;;6111056;23;20203;-71
2022/03/12 00:03:23;;;;;;;10.05;8.60;;;5.30;54.90;;;;;;6084396;23;20189;-71
2022/03/12 00:05:53;;;;;;;10.15;8.98;;;5.30;54.80;;;;;;6102220;23;20283;-71
2022/03/12 00:08:20;;;;;;;9.20;8.30;;;5.30;55.00;;;;;;6115919;23;20211;-71
2022/03/12 00:10:49;;;;;;;8.77;7.85;;;5.20;54.80;;;;;;6107614;23;20184;-71
2022/03/12 00:13:18;;;;;;;9.23;8.30;;;5.20;55.00;;;;;;6112537;23;20187;-71
2022/03/12 00:15:47;;;;;;;10.13;7.93;;;5.20;55.00;;;;;;6103822;23;20246;-71
2022/03/12 00:18:16;;;;;;;9.18;8.13;;;5.20;54.80;;;;;;6110166;23;20207;-71
2022/03/12 00:20:47;;;;;;;8.93;8.02;;;5.20;54.90;;;;;;6115344;23;20183;-71
2022/03/12 00:23:14;;;;;;;9.27;7.93;;;5.10;54.90;;;;;;6111177;23;20187;-72
2022/03/12 00:25:41;;;;;;;10.25;8.38;;;5.10;55.10;;;;;;6096091;23;20234;-71
2022/03/12 00:28:08;;;;;;;9.68;8.20;;;5.10;55.00;;;;;;6109623;23;20212;-71
2022/03/12 00:30:35;;;;;;;9.10;8.20;;;5.00;55.00;;;;;;6111033;23;20179;-71
2022/03/12 00:33:04;;;;;;;9.93;8.40;;;5.00;55.10;;;;;;6102076;23;20187;-71
2022/03/12 00:35:32;;;;;;;10.88;8.80;;;4.90;55.20;;;;;;6117803;23;20212;-71
2022/03/12 00:37:59;;;;;;;12.60;8.43;;;4.90;55.30;;;;;;6110733;23;20230;-70
2022/03/12 00:40:25;;;;;;;8.95;8.05;;;4.90;55.40;;;;;;6107678;23;20220;-71
2022/03/12 00:42:52;;;;;;;9.48;8.50;;;4.80;55.40;;;;;;6104662;23;20188;-71
2022/03/12 00:45:20;;;;;;;11.00;8.95;;;4.80;55.50;;;;;;6113450;23;20187;-71
2022/03/12 00:47:48;;;;;;;10.63;8.95;;;4.80;55.40;;;;;;6111059;23;20184;-71
2022/03/12 00:50:17;;;;;;;10.00;8.45;;;4.80;55.50;;;;;;6093077;23;20677;-71
2022/03/12 00:52:44;;;;;;;8.85;7.80;;;4.80;55.50;;;;;;6100514;23;20187;-71
2022/03/12 00:55:11;;;;;;;8.40;7.47;;;4.80;55.70;;;;;;6115011;23;20599;-71
2022/03/12 00:57:38;;;;;;;9.25;7.90;;;4.70;55.70;;;;;;6110250;23;20215;-71
2022/03/12 01:00:14;;;;;;;9.00;8.10;;;4.60;55.60;;;;;;6108693;23;20283;-71
2022/03/12 01:02:42;;;;;;;8.20;7.22;;;4.60;55.90;;;;;;6105233;23;20187;-71
2022/03/12 01:05:10;;;;;;;8.07;7.22;;;4.50;56.00;;;;;;6116998;23;20654;-71
2022/03/12 01:07:38;;;;;;;9.13;8.23;;;4.50;56.10;;;;;;6109788;23;20580;-71
2022/03/12 01:10:05;;;;;;;8.82;7.93;;;4.50;56.10;;;;;;6116353;23;20196;-71
2022/03/12 01:12:32;;;;;;;11.85;8.20;;;4.50;56.10;;;;;;6109343;23;20196;-71
2022/03/12 01:14:59;;;;;;;9.00;7.68;;;4.40;56.00;;;;;;6111081;23;20266;-71
2022/03/12 01:17:26;;;;;;;8.75;7.78;;;4.40;56.10;;;;;;6098926;23;20685;-71
2022/03/12 01:19:53;;;;;;;8.80;6.95;;;4.40;56.10;;;;;;6109761;23;20194;-71
2022/03/12 01:22:20;;;;;;;8.60;7.70;;;4.30;56.10;;;;;;6115921;23;20194;-71
2022/03/12 01:24:49;;;;;;;8.52;7.40;;;4.30;55.90;;;;;;6115155;23;20184;-70
2022/03/12 01:27:16;;;;;;;8.07;7.22;;;4.30;56.00;;;;;;6119284;23;20212;-71
2022/03/12 01:29:45;;;;;;;8.98;7.97;;;4.30;56.10;;;;;;6115766;23;20698;-71
2022/03/12 01:32:12;;;;;;;8.80;7.90;;;4.30;56.20;;;;;;6112991;23;20188;-71
2022/03/12 01:34:39;;;;;;;9.57;8.02;;;4.30;56.40;;;;;;6107415;23;20190;-70
2022/03/12 01:37:06;;;;;;;8.10;7.28;;;4.30;56.40;;;;;;6107927;23;20235;-71
2022/03/12 01:39:33;;;;;;;8.10;7.00;;;4.30;56.30;;;;;;6105070;23;20279;-71
2022/03/12 01:42:07;;;;;;;8.35;7.45;;;4.30;56.20;;;;;;6108433;23;20195;-71
2022/03/12 01:44:34;;;;;;;9.88;7.50;;;4.30;56.20;;;;;;6109546;23;20599;-70
2022/03/12 01:47:07;;;;;;;10.43;7.70;;;4.40;56.10;;;;;;6105038;23;20694;-71
2022/03/12 01:49:34;;;;;;;9.73;7.32;;;4.30;56.00;;;;;;6103426;23;20573;-71
2022/03/12 01:52:01;;;;;;;8.80;7.97;;;4.30;56.00;;;;;;6104623;23;20184;-71
2022/03/12 01:54:30;;;;;;;8.40;7.60;;;4.30;56.00;;;;;;6107499;23;20240;-70
2022/03/12 01:56:59;;;;;;;8.45;7.57;;;4.30;56.00;;;;;;6106817;23;20220;-71
2022/03/12 01:59:27;;;;;;;7.90;7.13;;;4.30;56.00;;;;;;6114050;23;20218;-70
2022/03/12 02:01:54;;;;;;;8.45;7.43;;;4.20;56.00;;;;;;6108814;23;20278;-71
2022/03/12 02:04:23;;;;;;;7.82;6.97;;;4.20;56.10;;;;;;6096064;23;20191;-71
2022/03/12 02:06:51;;;;;;;8.10;7.25;;;4.20;56.80;;;;;;6109462;23;20203;-71
2022/03/12 02:09:19;;;;;;;8.43;7.05;;;4.20;56.30;;;;;;6108553;23;20207;-70
2022/03/12 02:11:48;;;;;;;7.95;7.18;;;4.20;56.50;;;;;;6111506;23;20202;-70
2022/03/12 02:14:17;;;;;;;8.60;7.70;;;4.20;56.60;;;;;;6105034;23;20184;-71
2022/03/12 02:16:48;;;;;;;8.50;7.60;;;4.10;56.60;;;;;;6108974;23;20246;-70
2022/03/12 02:19:15;;;;;;;7.32;6.38;;;4.20;56.60;;;;;;6113522;23;20208;-71
2022/03/12 02:21:44;;;;;;;8.88;7.15;;;4.10;56.60;;;;;;6110846;23;20516;-71
2022/03/12 02:24:16;;;;;;;9.20;7.75;;;4.10;56.60;;;;;;6111785;23;20275;-71
2022/03/12 02:26:45;;;;;;;8.00;7.20;;;4.10;56.80;;;;;;6106448;23;20179;-71
2022/03/12 02:29:18;;;;;;;9.00;7.53;;;4.10;56.90;;;;;;6108698;23;20635;-70
2022/03/12 02:31:48;;;;;;;9.75;7.53;;;4.10;56.80;;;;;;6110950;23;20191;-71
2022/03/12 02:34:22;;;;;;;9.48;7.50;;;4.10;56.80;;;;;;6116724;23;20267;-71
2022/03/12 02:36:50;;;;;;;10.02;7.18;;;4.20;56.90;;;;;;6103608;23;20300;-71
2022/03/12 02:39:21;;;;;;;10.27;7.90;;;4.20;56.80;;;;;;6114354;23;20290;-71
2022/03/12 02:41:49;;;;;;;9.27;7.32;;;4.20;56.90;;;;;;6100044;23;20191;-71
2022/03/12 02:44:22;;;;;;;9.07;7.70;;;4.20;56.80;;;;;;6114766;23;20274;-71
2022/03/12 02:47:14;;;;;;;7.53;6.70;;;4.20;57.00;;;;;;6107738;23;20187;-71
2022/03/12 02:49:47;;;;;;;8.20;6.95;;;4.20;57.00;;;;;;6102679;23;20188;-70
2022/03/12 02:52:14;;;;;;;8.25;7.45;;;4.20;57.00;;;;;;6111265;23;20530;-71
2022/03/12 02:54:44;;;;;;;8.38;7.57;;;4.10;57.00;;;;;;6106885;23;20192;-71
2022/03/12 02:57:11;;;;;;;9.20;7.53;;;4.10;57.00;;;;;;6108835;23;20246;-70
2022/03/12 02:59:43;;;;;;;8.55;7.65;;;4.20;56.90;;;;;;6118835;23;20203;-70
2022/03/12 03:02:11;;;;;;;7.93;7.22;;;4.10;57.10;;;;;;6108412;23;20237;-70
2022/03/12 03:04:40;;;;;;;8.27;7.15;;;4.20;57.00;;;;;;6114352;23;20188;-71
2022/03/12 03:07:08;;;;;;;10.77;7.35;;;4.20;57.00;;;;;;6115542;23;20188;-70
2022/03/12 03:09:35;;;;;;;8.30;7.50;;;4.10;56.70;;;;;;6111729;23;20548;-70
2022/03/12 03:12:07;;;;;;;7.80;6.68;;;4.10;56.90;;;;;;6109380;23;20196;-70
2022/03/12 03:14:34;;;;;;;8.50;7.60;;;4.00;56.90;;;;;;6118976;23;20215;-70
2022/03/12 03:17:02;;;;;;;8.50;7.35;;;4.00;56.90;;;;;;6117886;23;20709;-70
2022/03/12 03:19:30;;;;;;;7.97;7.18;;;4.00;57.00;;;;;;6115106;23;20218;-70
2022/03/12 03:21:58;;;;;;;8.25;7.40;;;4.00;57.10;;;;;;6119909;23;20192;-70
2022/03/12 03:24:26;;;;;;;7.80;6.60;;;3.90;57.30;;;;;;6106279;23;20184;-71
2022/03/12 03:26:55;;;;;;;10.00;7.65;;;3.90;57.50;;;;;;6102309;23;20188;-71
2022/03/12 03:29:25;;;;;;;8.00;7.20;;;3.90;57.50;;;;;;6101097;23;20675;-70
2022/03/12 03:31:53;;;;;;;9.45;7.55;;;3.90;57.50;;;;;;6109148;23;20197;-70
2022/03/12 03:34:20;;;;;;;7.40;6.57;;;3.90;57.60;;;;;;6111042;23;20184;-71
2022/03/12 03:36:48;;;;;;;7.80;7.03;;;3.80;57.70;;;;;;6116873;23;20220;-70
2022/03/12 03:39:15;;;;;;;8.15;7.35;;;3.80;57.70;;;;;;6117865;23;20260;-70
2022/03/12 03:41:43;;;;;;;9.82;7.53;;;3.80;57.70;;;;;;6117182;23;20220;-70
2022/03/12 03:44:11;;;;;;;9.18;7.35;;;3.80;57.90;;;;;;6111472;23;20262;-71
2022/03/12 03:46:39;;;;;;;9.77;7.28;;;3.80;58.10;;;;;;6116457;23;20248;-72
2022/03/12 03:49:06;;;;;;;9.52;7.18;;;3.80;58.10;;;;;;6108226;23;20210;-71
2022/03/12 03:51:41;;;;;;;8.95;6.93;;;3.80;58.10;;;;;;6107718;23;20214;-71
2022/03/12 03:54:09;;;;;;;9.25;7.72;;;3.80;58.10;;;;;;6110884;23;20183;-71
2022/03/12 03:56:37;;;;;;;7.85;6.90;;;3.80;58.20;;;;;;6101590;23;20289;-71
2022/03/12 03:59:04;;;;;;;8.40;7.35;;;3.80;58.10;;;;;;6103720;23;20225;-72
2022/03/12 04:01:32;;;;;;;8.65;7.82;;;3.80;58.10;;;;;;6109509;23;20693;-71
2022/03/12 04:04:00;;;;;;;8.25;7.10;;;3.70;58.10;;;;;;6109653;23;20539;-71
2022/03/12 04:06:27;;;;;;;9.48;8.02;;;3.70;58.70;;;;;;6113425;23;20184;-71
2022/03/12 04:08:55;;;;;;;9.07;7.47;;;3.80;58.50;;;;;;6109119;23;20210;-72
2022/03/12 04:11:24;;;;;;;8.18;6.85;;;3.70;58.50;;;;;;6116108;23;20184;-72
2022/03/12 04:13:52;;;;;;;9.57;7.72;;;3.70;58.50;;;;;;6111303;23;20255;-71
2022/03/12 04:16:20;;;;;;;8.75;7.55;;;3.70;58.40;;;;;;6108165;23;20274;-71
2022/03/12 04:18:49;;;;;;;9.73;6.95;;;3.60;58.20;;;;;;6108608;23;20225;-71
2022/03/12 04:21:19;;;;;;;11.05;7.65;;;3.60;58.30;;;;;;6106262;23;20200;-71
2022/03/12 04:23:49;;;;;;;7.70;7.00;;;3.60;58.30;;;;;;6112702;23;20197;-71
2022/03/12 04:26:16;;;;;;;8.88;7.28;;;3.60;58.40;;;;;;6108384;23;20302;-72
2022/03/12 04:28:43;;;;;;;7.82;6.90;;;3.50;58.50;;;;;;6117725;23;20224;-71
2022/03/12 04:31:11;;;;;;;10.13;7.13;;;3.50;58.70;;;;;;6102963;23;20191;-72
2022/03/12 04:33:39;;;;;;;8.23;7.10;;;3.50;58.80;;;;;;6108928;23;20265;-72
2022/03/12 04:36:09;;;;;;;9.77;8.10;;;3.40;58.70;;;;;;6110740;23;20279;-72
2022/03/12 04:38:37;;;;;;;8.07;7.28;;;3.40;58.70;;;;;;6092921;23;20343;-71
2022/03/12 04:41:04;;;;;;;8.10;7.10;;;3.40;58.70;;;;;;6104027;23;20274;-71
2022/03/12 04:43:31;;;;;;;8.05;7.20;;;3.40;58.80;;;;;;6115343;23;20555;-71
2022/03/12 04:46:00;;;;;;;9.38;7.75;;;3.30;58.80;;;;;;6114287;23;20668;-72
2022/03/12 04:48:28;;;;;;;8.15;7.35;;;3.30;58.90;;;;;;6111738;23;20211;-71
2022/03/12 04:50:56;;;;;;;8.30;7.50;;;3.30;59.10;;;;;;6115107;23;20408;-73
2022/03/12 04:53:23;;;;;;;7.82;7.03;;;3.20;59.10;;;;;;6116198;23;20199;-72
2022/03/12 04:55:52;;;;;;;11.32;7.32;;;3.20;59.20;;;;;;6113858;23;20269;-73
2022/03/12 04:58:20;;;;;;;7.68;6.88;;;3.20;59.00;;;;;;6113653;23;20292;-72
2022/03/12 05:00:47;;;;;;;11.13;7.63;;;3.20;59.00;;;;;;6115327;23;20194;-74
2022/03/12 05:03:15;;;;;;;9.00;8.02;;;3.20;59.00;;;;;;6108583;23;20185;-72
2022/03/12 05:05:44;;;;;;;8.32;7.47;;;3.20;59.00;;;;;;6105525;23;20602;-70
2022/03/12 05:08:13;;;;;;;7.80;6.60;;;3.20;59.20;;;;;;6111993;23;20286;-70
2022/03/12 05:10:41;;;;;;;9.18;7.43;;;3.20;59.00;;;;;;6117094;23;20256;-70
2022/03/12 05:13:11;;;;;;;8.20;7.40;;;3.20;59.20;;;;;;6103430;23;20201;-70
2022/03/12 05:15:39;;;;;;;7.40;6.60;;;3.20;59.20;;;;;;6094883;23;20211;-70
2022/03/12 05:18:07;;;;;;;8.90;7.70;;;3.30;59.30;;;;;;6108460;23;20736;-70
2022/03/12 05:20:37;;;;;;;9.80;7.47;;;3.30;59.40;;;;;;6109104;23;20178;-70
2022/03/12 05:23:07;;;;;;;7.82;7.03;;;3.30;59.30;;;;;;6099976;23;20236;-70
2022/03/12 05:25:34;;;;;;;8.55;7.65;;;3.30;59.20;;;;;;6108076;23;20189;-70
2022/03/12 05:28:01;;;;;;;10.23;7.82;;;3.40;59.30;;;;;;6110565;23;20209;-71
2022/03/12 05:30:30;;;;;;;8.70;7.72;;;3.40;59.20;;;;;;6102582;23;21701;-78
2022/03/12 05:32:57;;;;;;;8.55;7.60;;;3.50;59.10;;;;;;6106338;23;20187;-77
2022/03/12 05:35:24;;;;;;;11.60;8.38;;;3.50;59.10;;;;;;6102805;23;20196;-76
2022/03/12 05:37:53;;;;;;;7.75;6.78;;;3.60;59.10;;;;;;6119980;23;20218;-78
2022/03/12 05:40:25;;;;;;;9.65;7.30;;;3.60;59.20;;;;;;6110316;23;20191;-77
2022/03/12 05:42:53;;;;;;;10.50;7.78;;;3.60;59.40;;;;;;6108164;23;20189;-74
2022/03/12 05:45:21;;;;;;;9.40;7.30;;;3.70;59.60;;;;;;6103997;23;20278;-78
2022/03/12 05:47:50;;;;;;;7.85;7.07;;;3.80;59.60;;;;;;6107066;23;20299;-78
2022/03/12 05:50:18;;;;;;;7.70;6.90;;;3.80;59.40;;;;;;6110400;23;20186;-77
2022/03/12 05:52:49;;;;;;;8.25;7.45;;;3.90;59.20;;;;;;6104046;23;20271;-78
2022/03/12 05:55:17;;;;;;;9.63;7.07;;;3.90;58.80;;;;;;6118375;23;20187;-78
2022/03/12 05:57:46;;;;;;;7.68;6.88;;;3.90;58.70;;;;;;6108843;23;20219;-78
2022/03/12 06:00:15;;;;;;;8.52;7.20;;;3.90;58.80;;;;;;6094511;23;20203;-78
2022/03/12 06:02:48;;;;;;;10.80;7.10;;;3.80;58.70;;;;;;6107973;23;20187;-77
2022/03/12 06:05:17;;;;;;;9.20;7.07;;;3.80;58.80;;;;;;6099822;23;20185;-78
2022/03/12 06:07:45;;;;;;;8.07;7.28;;;3.70;58.90;;;;;;6101855;23;20636;-76
2022/03/12 06:10:13;;;;;;;8.05;7.25;;;3.70;59.10;;;;;;6114666;23;20260;-77
2022/03/12 06:12:43;;;;;;;9.18;6.85;;;3.70;59.20;;;;;;6114737;23;20207;-77
2022/03/12 06:15:11;;;;;;;8.63;7.68;;;3.70;59.30;;;;;;6107901;23;20542;-78
2022/03/12 06:17:39;;;;;;;8.10;7.05;;;3.70;59.20;;;;;;6100347;23;20312;-78
2022/03/12 06:20:09;;;;;;;8.13;7.28;;;3.70;59.30;;;;;;6099533;23;20714;-78
2022/03/12 06:22:39;;;;;;;10.20;6.80;;;3.60;59.40;;;;;;6109808;23;20647;-78
2022/03/12 06:25:07;;;;;;;8.98;7.82;;;3.60;59.60;;;;;;6107615;23;20196;-78
2022/03/12 06:27:34;;;;;;;8.93;7.25;;;3.70;59.50;;;;;;6116394;23;20224;-78
2022/03/12 06:30:02;;;;;;;9.32;7.60;;;3.80;59.40;;;;;;6114759;23;20722;-78
2022/03/12 06:32:30;;;;;;;8.63;7.43;;;4.00;59.10;;;;;;6109454;23;20188;-79
2022/03/12 06:34:57;;;;;;;9.38;7.75;;;4.20;59.00;;;;;;6102265;23;20216;-79
2022/03/12 06:37:25;;;;;;;8.10;7.03;;;4.30;58.50;;;;;;6101127;23;20220;-78
2022/03/12 06:39:55;;;;;;;9.00;7.32;;;4.50;58.40;;;;;;6095294;23;20731;-79
2022/03/12 06:42:23;;;;;;;8.10;7.30;;;4.70;58.40;;;;;;6105652;23;20216;-78
2022/03/12 06:44:53;;;;;;;8.80;7.50;;;4.80;58.10;;;;;;6106359;23;20234;-78
2022/03/12 06:47:24;;;;;;;9.07;7.43;;;5.10;57.90;;;;;;6101340;23;20257;-78
2022/03/12 06:49:51;;;;;;;8.50;7.28;;;5.40;57.30;;;;;;6106629;23;20196;-79
2022/03/12 06:52:18;;;;;;;9.00;6.50;;;5.70;57.30;;;;;;6103369;23;20176;-76
2022/03/12 06:54:45;;;;;;;8.93;7.90;;;6.10;60.00;;;;;;6110440;23;20184;-78
2022/03/12 06:57:13;;;;;;;7.97;7.10;;;6.40;56.50;;;;;;6101689;23;20199;-77
2022/03/12 06:59:40;;;;;;;8.85;7.95;;;6.50;55.60;;;;;;6110181;23;20647;-78
2022/03/12 07:02:07;;;;;;;9.55;7.85;;;6.40;56.00;;;;;;6110942;23;20258;-78
2022/03/12 07:04:34;;;;;;;9.30;7.75;;;6.40;55.80;;;;;;6109914;23;20627;-79
2022/03/12 07:07:01;;;;;;;9.70;8.32;;;6.30;54.50;;;;;;6102378;23;20342;-79
2022/03/12 07:09:29;;;;;;;11.85;8.20;;;6.30;55.10;;;;;;6104749;23;20186;-79
2022/03/12 07:11:58;;;;;;;8.60;7.60;;;6.50;55.00;;;;;;6113956;23;20539;-79
2022/03/12 07:14:26;;;;;;;9.75;8.13;;;6.80;54.50;;;;;;6111857;23;21613;-79
2022/03/12 07:16:54;;;;;;;11.07;7.63;;;7.20;54.30;;;;;;6114713;23;20212;-79
2022/03/12 07:19:21;;;;;;;11.77;8.18;;;7.40;53.50;;;;;;6110625;23;20219;-79
2022/03/12 07:21:49;;;;;;;9.77;7.40;;;7.80;52.70;;;;;;6109364;23;20184;-79
2022/03/12 07:24:16;;;;;;;9.70;8.48;;;8.00;52.20;;;;;;6108173;23;20633;-79
2022/03/12 07:26:45;;;;;;;8.63;7.80;;;8.50;52.00;;;;;;6095588;23;20205;-80
2022/03/12 07:29:12;;;;;;;8.68;7.88;;;8.80;51.60;;;;;;6104197;23;20193;-80
2022/03/12 07:31:41;;;;;;;8.77;7.97;;;9.00;51.20;;;;;;6116804;23;20185;-79
2022/03/12 07:34:11;;;;;;;8.70;7.75;;;9.10;50.80;;;;;;6102651;23;20190;-79
2022/03/12 07:36:38;;;;;;;9.43;8.10;;;9.20;50.70;;;;;;6112498;23;20213;-80
2022/03/12 07:39:05;;;;;;;8.93;8.00;;;9.30;50.50;;;;;;6105120;23;20214;-80
2022/03/12 07:41:33;;;;;;;9.85;8.90;;;9.50;50.80;;;;;;6113606;23;20189;-80
2022/03/12 07:44:00;;;;;;;9.20;8.10;;;9.80;50.40;;;;;;6111791;23;20223;-80
2022/03/12 07:46:27;;;;;;;9.60;8.40;;;10.10;49.00;;;;;;6116647;23;20630;-80
2022/03/12 07:48:55;;;;;;;8.75;7.95;;;10.40;48.90;;;;;;6111907;23;20192;-79
2022/03/12 07:51:23;;;;;;;9.15;8.13;;;10.50;48.00;;;;;;6099038;23;20580;-79
2022/03/12 07:53:50;;;;;;;9.20;8.23;;;10.30;47.80;;;;;;6095368;23;20189;-81
2022/03/12 07:56:17;;;;;;;9.50;8.50;;;10.30;48.00;;;;;;6102509;23;20211;-80
2022/03/12 07:58:44;;;;;;;9.30;8.40;;;10.40;48.10;;;;;;6108437;23;20221;-80
2022/03/12 08:01:11;;;;;;;10.35;9.40;;;10.50;48.10;;;;;;6112286;23;20191;-80
2022/03/12 08:03:38;;;;;;;9.60;8.65;;;10.60;48.10;;;;;;6109014;23;20186;-79
2022/03/12 08:06:08;;;;;;;9.68;8.73;;;10.20;48.20;;;;;;6101628;23;20186;-79
2022/03/12 08:08:35;;;;;;;9.75;8.85;;;10.20;48.60;;;;;;6102873;23;20198;-79
2022/03/12 08:13:48;;;;;;;9.68;8.25;;;10.30;49.10;;;;;;6115147;23;20196;-80
2022/03/12 08:16:16;;;;;;;9.00;8.10;;;10.50;48.80;;;;;;6106072;23;20186;-80
2022/03/12 08:18:43;;;;;;;10.23;9.20;;;10.50;48.20;;;;;;6102390;23;20207;-80
2022/03/12 08:21:13;;;;;;;9.13;8.23;;;10.60;48.60;;;;;;6112866;23;20273;-80
2022/03/12 08:23:40;;;;;;;10.70;9.20;;;10.90;48.90;;;;;;6108759;23;20187;-78
2022/03/12 08:26:10;;;;;;;10.48;9.48;;;11.40;47.70;;;;;;6105463;23;20635;-79
2022/03/12 08:28:37;;;;;;;9.80;8.70;;;11.80;46.80;;;;;;6116547;23;20230;-78
2022/03/12 08:31:06;;;;;;;10.30;8.90;;;11.90;46.10;;;;;;6111735;23;20188;-78
2022/03/12 08:33:34;;;;;;;10.82;9.68;;;12.10;46.20;;;;;;6116244;23;20232;-78
2022/03/12 08:36:04;;;;;;;9.85;8.85;;;12.30;46.00;;;;;;6111372;23;20185;-78
2022/03/12 08:38:34;;;;;;;10.63;9.63;;;12.60;45.40;;;;;;6101042;23;20618;-78
2022/03/12 08:41:01;;;;;;;13.02;10.25;;;13.00;45.00;;;;;;6098845;23;20179;-79
2022/03/12 08:43:28;;;;;;;11.15;10.07;;;13.30;44.80;;;;;;6116653;23;20229;-79
2022/03/12 08:45:55;;;;;;;10.82;9.85;;;13.20;44.80;;;;;;6115992;23;20262;-79
2022/03/12 08:48:22;;;;;;;10.60;9.60;;;13.50;44.50;;;;;;6117295;23;20678;-79
2022/03/12 08:50:49;;;;;;;10.98;9.98;;;13.70;44.50;;;;;;6112635;23;20270;-78
2022/03/12 08:53:16;;;;;;;11.30;10.25;;;13.90;44.20;;;;;;6116354;23;20184;-79
2022/03/12 08:55:45;;;;;;;10.73;9.68;;;13.80;43.70;;;;;;6108325;23;20309;-79
2022/03/12 08:58:12;;;;;;;11.82;10.75;;;14.00;43.80;;;;;;6115054;23;20211;-79
2022/03/12 09:00:40;;;;;;;10.43;9.43;;;14.00;43.70;;;;;;6112587;23;20245;-79
2022/03/12 09:03:09;;;;;;;10.57;9.67;;;14.60;44.00;;;;;;6105363;23;20220;-79
2022/03/12 09:05:36;;;;;;;10.80;9.50;;;15.00;43.10;;;;;;6109365;23;20435;-79
2022/03/12 09:08:03;;;;;;;11.37;10.27;;;15.30;43.10;;;;;;6115391;23;20489;-80
2022/03/12 09:10:32;;;;;;;11.07;10.07;;;15.70;42.90;;;;;;6106850;23;20528;-80
2022/03/12 09:13:00;;;;;;;11.10;10.10;;;16.10;42.20;;;;;;6107404;23;20449;-79
2022/03/12 09:15:27;;;;;;;10.60;9.60;;;16.10;41.90;;;;;;6118165;23;20470;-80
2022/03/12 09:17:54;;;;;;;12.07;10.90;;;16.20;42.20;;;;;;6108152;23;20511;-80
2022/03/12 09:20:22;;;;;;;12.17;10.97;;;16.40;42.50;;;;;;6110504;23;20471;-79
2022/03/12 09:22:50;;;;;;;10.73;9.73;;;16.70;41.80;;;;;;6117068;23;20455;-79
2022/03/12 09:25:17;;;;;;;11.00;10.00;;;16.90;41.30;;;;;;6106204;23;20506;-79
2022/03/12 09:27:45;;;;;;;11.70;10.60;;;17.00;41.60;;;;;;6114341;23;20512;-80
2022/03/12 09:30:15;;;;;;;12.20;10.93;;;17.40;41.90;;;;;;6118375;23;20441;-79
2022/03/12 09:32:42;;;;;;;11.97;10.90;;;17.90;40.60;;;;;;6108595;23;20494;-80
2022/03/12 09:35:10;;;;;;;12.10;10.90;;;18.10;39.50;;;;;;6107947;23;20449;-79
2022/03/12 09:37:38;;;;;;;11.53;10.53;;;18.10;39.80;;;;;;6109101;23;20625;-80
2022/03/12 09:40:07;;;;;;;12.27;11.13;;;17.80;39.70;;;;;;6109853;23;20804;-80
2022/03/12 09:42:34;;;;;;;12.33;11.23;;;17.80;39.70;;;;;;6106007;23;20437;-80
2022/03/12 09:45:02;;;;;;;13.47;12.07;;;18.00;39.90;;;;;;6101650;23;20446;-79
2022/03/12 09:47:30;;;;;;;11.30;10.10;;;18.20;39.20;;;;;;6097376;23;20466;-80
2022/03/12 09:49:57;;;;;;;12.60;11.50;;;17.80;39.30;;;;;;6108742;23;20744;-80
2022/03/12 09:52:24;;;;;;;13.77;12.47;;;17.40;39.80;;;;;;6109268;23;21006;-75
2022/03/12 09:54:51;;;;;;;12.07;10.97;;;17.10;40.00;;;;;;6108476;23;20816;-78
2022/03/12 09:57:18;;;;;;;13.87;12.37;;;17.00;41.30;;;;;;6099552;23;20461;-80
2022/03/12 09:59:46;;;;;;;13.43;12.13;;;17.10;40.50;;;;;;6113751;23;20470;-80
2022/03/12 10:02:14;;;;;;;12.80;11.50;;;16.70;40.50;;;;;;6112625;23;20525;-79
2022/03/12 10:04:44;;;;;;;13.40;12.20;;;16.80;40.70;;;;;;6106459;23;20954;-79
2022/03/12 10:07:11;;;;;;;13.13;11.83;;;16.70;40.90;;;;;;6105502;23;20464;-79
2022/03/12 10:09:38;;;;;;;12.53;11.37;;;16.80;40.80;;;;;;6104952;23;20941;-79
2022/03/12 10:12:06;;;;;;;13.70;12.30;;;16.50;41.00;;;;;;6112532;23;20452;-79
2022/03/12 10:14:34;;;;;;;12.57;11.37;;;16.60;41.00;;;;;;6102707;23;21005;-80
2022/03/12 10:17:02;;;;;;;13.00;11.80;;;17.10;41.10;;;;;;6106361;23;20778;-81
2022/03/12 10:19:30;;;;;;;13.80;12.40;;;17.40;40.60;;;;;;6117172;23;20476;-80
2022/03/12 10:21:59;;;;;;;13.90;12.60;;;18.00;40.50;;;;;;6105019;23;20465;-81
2022/03/12 10:24:26;;;;;;;13.20;12.00;;;18.20;40.30;;;;;;6108651;23;20784;-81
2022/03/12 10:26:53;;;;;;;13.23;11.90;;;18.10;40.60;;;;;;6115176;23;20454;-80
2022/03/12 10:29:20;;;;;;;13.60;12.40;;;18.30;40.70;;;;;;6116908;23;20449;-80
2022/03/12 10:31:48;;;;;;;12.90;11.80;;;18.50;41.00;;;;;;6115744;23;20430;-82
2022/03/12 10:34:20;;;;;;;13.87;12.70;;;19.00;41.00;;;;;;6107891;23;20529;-80
2022/03/12 10:36:48;;;;;;;12.67;11.57;;;19.20;40.70;;;;;;6101310;23;20454;-82
2022/03/12 10:39:17;;;;;;;12.60;11.50;;;19.30;40.70;;;;;;6098495;23;20454;-81
2022/03/12 10:41:45;;;;;;;12.90;11.73;;;19.30;40.80;;;;;;6118346;23;20477;-80
2022/03/12 10:44:12;;;;;;;13.30;12.10;;;18.30;41.70;;;;;;6116157;23;20988;-80
2022/03/12 10:46:44;;;;;;;12.70;11.50;;;17.80;42.20;;;;;;6103472;23;20539;-81
2022/03/12 10:49:13;;;;;;;12.77;11.67;;;17.90;42.70;;;;;;6116896;23;20446;-82
2022/03/12 10:51:41;;;;;;;13.50;12.03;;;18.50;42.70;;;;;;6100218;23;20504;-81
2022/03/12 10:54:10;;;;;;;13.30;12.20;;;19.20;42.40;;;;;;6115160;23;20439;-82
2022/03/12 10:56:43;;;;;;;12.63;11.53;;;19.40;41.60;;;;;;6128563;23;20454;-82
2022/03/12 10:59:13;;;;;;;13.97;12.47;;;19.80;41.80;;;;;;6126797;23;20461;-79
2022/03/12 11:01:49;;;;;;;13.60;12.40;;;20.00;41.90;;;;;;6125430;23;20441;-82
2022/03/12 11:04:22;;;;;;;13.37;12.07;;;19.90;41.60;;;;;;6109837;23;20456;-82
2022/03/12 11:06:51;;;;;;;12.87;11.47;;;20.00;42.40;;;;;;6110743;23;20882;-80
2022/03/12 11:09:33;;;;;;;14.10;12.90;;;20.20;42.70;;;;;;6126119;23;20441;-81
2022/03/12 11:12:01;;;;;;;12.83;11.73;;;20.70;42.40;;;;;;6128488;23;20445;-81
2022/03/12 11:14:31;;;;;;;13.03;11.83;;;21.10;41.80;;;;;;6134712;23;20490;-81
2022/03/12 11:17:00;;;;;;;13.47;12.37;;;21.10;42.20;;;;;;6126877;23;20450;-80
2022/03/12 11:19:40;;;;;;;12.50;11.20;;;21.60;41.90;;;;;;6120565;23;20471;-81
2022/03/12 11:22:12;;;;;;;13.00;11.70;;;21.90;41.80;;;;;;6098970;23;20467;-80
2022/03/12 11:24:48;;;;;;;12.53;11.23;;;21.20;42.20;;;;;;6103798;23;20451;-81
2022/03/12 11:27:28;;;;;;;13.23;11.93;;;21.00;42.70;;;;;;6105904;23;20478;-83
2022/03/12 11:30:03;;;;;;;12.10;11.00;;;21.30;42.70;;;;;;6117115;23;20461;-82
2022/03/12 11:32:34;;;;;;;12.47;11.37;;;20.80;42.70;;;;;;6112245;23;20426;-80
2022/03/12 11:35:07;;;;;;;12.77;11.67;;;20.70;42.70;;;;;;6109543;23;20442;-82
2022/03/12 11:37:36;;;;;;;12.90;11.77;;;20.50;43.70;;;;;;6112719;23;20466;-81
2022/03/12 11:40:11;;;;;;;12.40;11.13;;;21.10;43.50;;;;;;6111144;23;20556;-81
2022/03/12 11:42:41;;;;;;;11.67;10.67;;;21.50;42.80;;;;;;6108978;23;20450;-81
2022/03/12 11:45:12;;;;;;;11.23;10.13;;;21.60;43.50;;;;;;6099877;23;20536;-81
2022/03/12 11:47:40;;;;;;;11.00;10.10;;;22.00;44.00;;;;;;6109614;23;20441;-82
2022/03/12 11:50:14;;;;;;;11.40;10.43;;;22.60;43.20;;;;;;6109573;23;20503;-83
2022/03/12 11:52:43;;;;;;;10.87;9.97;;;23.20;43.20;;;;;;6112657;23;21222;-82
2022/03/12 11:55:17;;;;;;;12.13;10.43;;;23.70;42.80;;;;;;6101045;23;20440;-82
2022/03/12 11:57:47;;;;;;;12.23;11.23;;;24.00;42.30;;;;;;6099568;23;20449;-82
2022/03/12 12:00:21;;;;;;;11.23;10.23;;;24.40;41.50;;;;;;6107407;23;20465;-82
2022/03/12 12:02:48;;;;;;;11.60;10.40;;;25.00;41.00;;;;;;6104468;23;20946;-82
2022/03/12 12:05:19;;;;;;;10.07;9.07;;;24.70;40.70;;;;;;6104735;23;20891;-81
2022/03/12 12:07:48;;;;;;;11.57;10.40;;;23.90;41.50;;;;;;6102111;23;20449;-83
2022/03/12 12:10:17;;;;;;;10.20;9.30;;;23.50;42.20;;;;;;6106645;23;20441;-82
2022/03/12 12:12:49;;;;;;;9.40;8.50;;;23.20;42.40;;;;;;6113344;23;20478;-82
2022/03/12 12:15:20;;;;;;;9.40;8.63;;;23.60;42.70;;;;;;6111881;23;20461;-82
2022/03/12 12:17:47;;;;;;;9.03;8.33;;;24.00;42.00;;;;;;6110258;23;20457;-81
2022/03/12 12:20:18;;;;;;;9.47;8.57;;;24.20;42.20;;;;;;6101760;23;20505;-86
2022/03/12 12:22:45;;;;;;;9.33;8.60;;;24.40;42.10;;;;;;6098241;23;20442;-77
2022/03/12 12:25:13;;;;;;;9.20;8.40;;;23.80;41.70;;;;;;6112031;23;20433;-76
2022/03/12 12:27:43;;;;;;;9.93;9.00;;;23.20;43.10;;;;;;6106378;23;20960;-77
2022/03/12 12:30:17;;;;;;;8.30;7.70;;;23.10;43.20;;;;;;6106470;23;21029;-82
2022/03/12 12:32:49;;;;;;;8.23;7.63;;;23.20;43.30;;;;;;6105463;23;20755;-83
2022/03/12 12:35:19;;;;;;;7.37;6.80;;;23.70;43.20;;;;;;6104017;23;20441;-83
2022/03/12 12:37:49;;;;;;;9.10;8.40;;;24.10;43.00;;;;;;6113928;23;20442;-83
2022/03/12 12:40:23;;;;;;;7.87;7.27;;;24.50;42.10;;;;;;6119753;23;20544;-83
2022/03/12 12:42:51;;;;;;;8.60;7.80;;;24.70;42.20;;;;;;6104681;23;20527;-84
2022/03/12 12:45:21;;;;;;;9.13;8.33;;;24.50;41.80;;;;;;6111144;23;20786;-83
2022/03/12 12:47:57;;;;;;;9.97;9.07;;;23.70;41.90;;;;;;6100855;23;20520;-84
2022/03/12 12:50:25;;;;;;;8.80;8.10;;;22.50;42.30;;;;;;6116630;23;20610;-83
2022/03/12 12:53:17;;;;;;;10.40;9.60;;;21.90;43.70;;;;;;6103320;23;20441;-84
2022/03/12 12:55:45;;;;;;;9.80;8.90;;;21.60;44.00;;;;;;6109529;23;20471;-84